Time;durP1;ratioP1;P1;durP2;ratioP2;P2;SDS_P1;SDS_P2;PMS_P1;PMS_P2;Temp;Humidity;BMP_temperature;BMP_pressure;BME280_temperature;BME280_humidity;BME280_pressure;Samples;Min_cycle;Max_cycle;Signal;HPM_P1;HPM_P2
2023/03/03 00:00:54;;;;;;;;;;;;;;;4.81;100.00;100093.44;5133438;27;1174;-69
2023/03/03 00:03:22;;;;;;;;;;;;;;;4.81;100.00;100093.44;5134783;27;823;-68
2023/03/03 00:05:49;;;;;;;;;;;;;;;4.82;100.00;100081.34;5134678;27;873;-69
2023/03/03 00:08:17;;;;;;;;;;;;;;;4.81;100.00;100083.28;5134899;27;1913;-68
2023/03/03 00:10:44;;;;;;;;;;;;;;;4.79;100.00;100076.56;5134875;27;830;-67
2023/03/03 00:13:18;;;;;;;;;;;;;;;4.79;100.00;100074.63;5134546;27;815;-66
2023/03/03 00:15:45;;;;;;;;;;;;;;;4.75;100.00;100076.50;5133172;27;1316;-68
2023/03/03 00:18:17;;;;;;;;;;;;;;;4.75;100.00;100075.69;5134330;27;1341;-67
2023/03/03 00:20:47;;;;;;;;;;;;;;;4.74;100.00;100072.19;5134664;27;1053;-67
2023/03/03 00:23:28;;;;;;;;;;;;;;;4.73;100.00;100061.56;5133090;27;1209;-67
2023/03/03 00:25:55;;;;;;;;;;;;;;;4.72;100.00;100062.75;5134404;27;827;-69
2023/03/03 00:28:32;;;;;;;;;;;;;;;4.72;100.00;100065.47;5134220;27;1978;-68
2023/03/03 00:31:05;;;;;;;;;;;;;;;4.70;100.00;100055.66;5134222;27;929;-69
2023/03/03 00:33:33;;;;;;;;;;;;;;;4.72;100.00;100066.25;5134133;27;850;-68
2023/03/03 00:36:15;;;;;;;;;;;;;;;4.71;100.00;100061.91;5132757;27;1403;-68
2023/03/03 00:38:45;;;;;;;;;;;;;;;4.73;100.00;100058.84;5134043;27;865;-66
2023/03/03 00:41:20;;;;;;;;;;;;;;;4.73;100.00;100059.63;5134100;27;886;-66
2023/03/03 00:43:47;;;;;;;;;;;;;;;4.70;100.00;100050.19;5133891;27;906;-68
2023/03/03 00:46:18;;;;;;;;;;;;;;;4.69;100.00;100054.09;5133891;27;972;-67
2023/03/03 00:48:45;;;;;;;;;;;;;;;4.65;100.00;100047.72;5134033;27;1893;-67
2023/03/03 00:51:25;;;;;;;;;;;;;;;4.64;100.00;100043.38;5133861;27;815;-67
2023/03/03 00:53:51;;;;;;;;;;;;;;;4.63;100.00;100035.53;5133710;27;835;-69
2023/03/03 00:56:18;;;;;;;;;;;;;;;4.61;100.00;100037.81;5133658;27;803;-69
2023/03/03 00:58:46;;;;;;;;;;;;;;;4.57;100.00;100026.81;5133671;27;826;-67
2023/03/03 01:01:13;;;;;;;;;;;;;;;4.53;100.00;100034.16;5133492;27;901;-68
2023/03/03 01:03:40;;;;;;;;;;;;;;;4.52;100.00;100034.50;5133606;27;883;-67
2023/03/03 01:06:06;;;;;;;;;;;;;;;4.49;100.00;100041.47;5133464;27;871;-69
2023/03/03 01:08:33;;;;;;;;;;;;;;;4.44;100.00;100028.88;5132246;27;1960;-70
2023/03/03 01:11:03;;;;;;;;;;;;;;;4.40;100.00;100035.41;5133703;27;839;-69
2023/03/03 01:13:31;;;;;;;;;;;;;;;4.33;100.00;100019.59;5133425;27;862;-66
2023/03/03 01:15:59;;;;;;;;;;;;;;;4.24;100.00;100021.72;5133297;27;799;-69
2023/03/03 01:18:26;;;;;;;;;;;;;;;4.15;100.00;100021.91;5133222;27;1222;-69
2023/03/03 01:20:53;;;;;;;;;;;;;;;4.10;100.00;100016.72;5131974;27;902;-68
2023/03/03 01:23:20;;;;;;;;;;;;;;;4.09;100.00;100015.09;5133123;27;890;-69
2023/03/03 01:25:47;;;;;;;;;;;;;;;4.13;100.00;100010.53;5133091;27;890;-67
2023/03/03 01:28:13;;;;;;;;;;;;;;;4.20;100.00;100002.47;5133081;27;1967;-67
2023/03/03 01:30:40;;;;;;;;;;;;;;;4.24;100.00;100008.03;5132974;27;855;-67
2023/03/03 01:33:06;;;;;;;;;;;;;;;4.29;100.00;100003.09;5131727;27;1326;-69
2023/03/03 01:35:35;;;;;;;;;;;;;;;4.29;100.00;100000.38;5132952;27;871;-67
2023/03/03 01:38:01;;;;;;;;;;;;;;;4.32;100.00;99990.66;5133000;27;834;-67
2023/03/03 01:40:29;;;;;;;;;;;;;;;4.36;100.00;99990.75;5132519;27;866;-67
2023/03/03 01:42:55;;;;;;;;;;;;;;;4.38;100.00;99988.44;5132793;27;835;-67
2023/03/03 01:45:26;;;;;;;;;;;;;;;4.39;100.00;99992.75;5132884;27;835;-67
2023/03/03 01:47:57;;;;;;;;;;;;;;;4.40;100.00;99989.66;5132990;27;889;-67
2023/03/03 01:50:29;;;;;;;;;;;;;;;4.41;100.00;99993.19;5132735;27;1889;-67
2023/03/03 01:52:57;;;;;;;;;;;;;;;4.42;100.00;99997.53;5132889;27;874;-66
2023/03/03 01:55:27;;;;;;;;;;;;;;;4.41;100.00;99995.94;5131374;27;1268;-67
2023/03/03 01:58:06;;;;;;;;;;;;;;;4.41;100.00;99998.66;5132703;27;819;-67
2023/03/03 02:00:34;;;;;;;;;;;;;;;4.38;100.00;99996.66;5132676;27;898;-67
2023/03/03 02:03:01;;;;;;;;;;;;;;;4.36;100.00;99997.00;5132636;27;831;-68
2023/03/03 02:05:28;;;;;;;;;;;;;;;4.37;100.00;99990.38;5132469;27;925;-67
2023/03/03 02:07:55;;;;;;;;;;;;;;;4.36;100.00;99988.78;5132543;27;811;-67
2023/03/03 02:10:21;;;;;;;;;;;;;;;4.35;100.00;99987.19;5132466;27;1941;-67
2023/03/03 02:12:48;;;;;;;;;;;;;;;4.38;100.00;99991.19;5132476;27;886;-69
2023/03/03 02:15:25;;;;;;;;;;;;;;;4.38;100.00;99988.44;5132652;27;925;-68
2023/03/03 02:18:02;;;;;;;;;;;;;;;4.41;100.00;99988.50;5132273;27;906;-67
2023/03/03 02:20:48;;;;;;;;;;;;;;;4.41;100.00;99996.72;5130931;28;1377;-67
2023/03/03 02:23:14;;;;;;;;;;;;;;;4.43;100.00;99990.88;5132461;28;859;-67
2023/03/03 02:25:41;;;;;;;;;;;;;;;4.44;100.00;99992.50;5131316;28;1338;-67
2023/03/03 02:28:07;;;;;;;;;;;;;;;4.45;100.00;99997.59;5132783;27;799;-67
2023/03/03 02:30:36;;;;;;;;;;;;;;;4.46;100.00;99996.47;5132803;27;1910;-67
2023/03/03 02:33:03;;;;;;;;;;;;;;;4.49;100.00;99994.94;5132413;27;819;-66
2023/03/03 02:35:34;;;;;;;;;;;;;;;4.51;100.00;99987.16;5132343;27;835;-67
2023/03/03 02:38:11;;;;;;;;;;;;;;;4.53;100.00;99990.34;5132272;27;815;-66
2023/03/03 02:40:41;;;;;;;;;;;;;;;4.58;100.00;99989.28;5132236;27;893;-69
2023/03/03 02:43:09;;;;;;;;;;;;;;;4.62;100.00;99988.19;5132460;27;815;-69
2023/03/03 02:45:40;;;;;;;;;;;;;;;4.63;100.00;99989.78;5130833;28;1168;-67
2023/03/03 02:48:07;;;;;;;;;;;;;;;4.61;100.00;99991.28;5132130;27;905;-67
2023/03/03 02:50:33;;;;;;;;;;;;;;;4.59;100.00;99993.59;5132168;27;1944;-67
2023/03/03 02:53:00;;;;;;;;;;;;;;;4.56;100.00;99989.63;5136299;27;819;-67
2023/03/03 02:55:26;;;;;;;;;;;;;;;4.55;100.00;99993.53;5136389;27;814;-67
2023/03/03 02:57:53;;;;;;;;;;;;;;;4.53;100.00;99982.13;5136440;27;823;-67
2023/03/03 03:00:20;;;;;;;;;;;;;;;4.50;100.00;99985.56;5136831;27;767;-67
2023/03/03 03:02:46;;;;;;;;;;;;;;;4.49;100.00;99992.22;5136169;27;814;-67
2023/03/03 03:05:13;;;;;;;;;;;;;;;4.47;100.00;99994.50;5136587;27;814;-67
2023/03/03 03:07:39;;;;;;;;;;;;;;;4.44;100.00;99995.22;5135838;27;862;-67
2023/03/03 03:10:06;;;;;;;;;;;;;;;4.43;100.00;99993.63;5135734;27;1947;-67
2023/03/03 03:12:32;;;;;;;;;;;;;;;4.41;100.00;99988.50;5135730;27;807;-67
2023/03/03 03:14:59;;;;;;;;;;;;;;;4.39;100.00;99990.81;5135745;27;966;-67
2023/03/03 03:17:25;;;;;;;;;;;;;;;4.39;100.00;99990.00;5135935;27;910;-69
2023/03/03 03:19:52;;;;;;;;;;;;;;;4.41;100.00;99987.72;5135429;27;1317;-68
2023/03/03 03:22:18;;;;;;;;;;;;;;;4.42;100.00;99983.84;5135490;27;831;-67
2023/03/03 03:24:44;;;;;;;;;;;;;;;4.39;100.00;99982.59;5135475;27;843;-67
2023/03/03 03:27:11;;;;;;;;;;;;;;;4.37;100.00;99986.84;5135487;27;856;-67
2023/03/03 03:29:37;;;;;;;;;;;;;;;4.36;100.00;99982.53;5135349;27;1909;-67
2023/03/03 03:32:04;;;;;;;;;;;;;;;4.32;100.00;99979.69;5134120;27;1223;-69
2023/03/03 03:34:30;;;;;;;;;;;;;;;4.27;100.00;99978.03;5134104;27;1324;-68
2023/03/03 03:36:57;;;;;;;;;;;;;;;4.27;100.00;99975.31;5135245;27;850;-68
2023/03/03 03:39:23;;;;;;;;;;;;;;;4.26;100.00;99967.44;5135228;27;827;-67
2023/03/03 03:41:50;;;;;;;;;;;;;;;4.22;100.00;99967.34;5135159;27;815;-67
2023/03/03 03:44:17;;;;;;;;;;;;;;;4.19;100.00;99970.03;5135214;27;843;-67
2023/03/03 03:46:43;;;;;;;;;;;;;;;4.17;100.00;99970.38;5135106;27;838;-67
2023/03/03 03:49:10;;;;;;;;;;;;;;;4.19;100.00;99964.53;5134990;27;1894;-67
2023/03/03 03:51:40;;;;;;;;;;;;;;;4.19;100.00;99962.59;5134967;27;871;-69
2023/03/03 03:54:06;;;;;;;;;;;;;;;4.22;100.00;99956.41;5134974;27;823;-69
2023/03/03 03:56:33;;;;;;;;;;;;;;;4.26;100.00;99960.00;5135141;27;862;-68
2023/03/03 03:58:59;;;;;;;;;;;;;;;4.26;100.00;99960.00;5134913;27;855;-69
2023/03/03 04:01:27;;;;;;;;;;;;;;;4.27;100.00;99960.84;5134620;27;815;-68
2023/03/03 04:03:53;;;;;;;;;;;;;;;4.26;100.00;99959.22;5133352;27;1361;-67
2023/03/03 04:06:20;;;;;;;;;;;;;;;4.26;100.00;99962.75;5134778;27;823;-66
2023/03/03 04:08:47;;;;;;;;;;;;;;;4.27;100.00;99955.38;5134575;27;1952;-67
2023/03/03 04:11:13;;;;;;;;;;;;;;;4.27;100.00;99958.09;5134626;27;830;-68
2023/03/03 04:13:40;;;;;;;;;;;;;;;4.27;100.00;99955.38;5134570;27;811;-68
2023/03/03 04:16:07;;;;;;;;;;;;;;;4.24;100.00;99954.09;5133340;27;1389;-69
2023/03/03 04:18:34;;;;;;;;;;;;;;;4.24;100.00;99953.31;5134389;27;1463;-68
2023/03/03 04:21:00;;;;;;;;;;;;;;;4.25;100.00;99952.97;5133052;27;1201;-68
2023/03/03 04:23:27;;;;;;;;;;;;;;;4.27;100.00;99945.19;5133005;27;1165;-68
2023/03/03 04:25:54;;;;;;;;;;;;;;;4.30;100.00;99946.44;5133129;27;1677;-67
2023/03/03 04:28:24;;;;;;;;;;;;;;;4.32;100.00;99941.38;5134222;27;1914;-67
2023/03/03 04:30:50;;;;;;;;;;;;;;;4.33;100.00;99942.19;5134198;27;889;-67
2023/03/03 04:33:16;;;;;;;;;;;;;;;4.34;100.00;99954.72;5134359;27;836;-67
2023/03/03 04:35:43;;;;;;;;;;;;;;;4.36;100.00;99953.22;5134137;27;887;-69
2023/03/03 04:38:09;;;;;;;;;;;;;;;4.39;100.00;99960.69;5134397;27;893;-67
2023/03/03 04:40:35;;;;;;;;;;;;;;;4.38;100.00;99956.38;5132817;27;1293;-67
2023/03/03 04:43:03;;;;;;;;;;;;;;;4.37;100.00;99959.47;5133991;27;1080;-67
2023/03/03 04:45:29;;;;;;;;;;;;;;;4.37;100.00;99959.47;5133937;27;1011;-67
2023/03/03 04:47:55;;;;;;;;;;;;;;;4.40;100.00;99967.78;5133947;27;811;-69
2023/03/03 04:50:22;;;;;;;;;;;;;;;4.42;100.00;99965.47;5133718;27;2008;-66
2023/03/03 04:52:48;;;;;;;;;;;;;;;4.43;100.00;99969.78;5133792;27;854;-67
2023/03/03 04:55:15;;;;;;;;;;;;;;;4.44;100.00;99973.34;5133804;27;803;-69
2023/03/03 04:57:42;;;;;;;;;;;;;;;4.44;100.00;99968.66;5133780;27;790;-67
2023/03/03 05:00:18;;;;;;;;;;;;;;;4.41;100.00;99966.59;5133727;27;803;-68
2023/03/03 05:02:46;;;;;;;;;;;;;;;4.40;100.00;99964.25;5133646;27;827;-68
2023/03/03 05:05:12;;;;;;;;;;;;;;;4.38;100.00;99956.38;5133620;27;882;-69
2023/03/03 05:07:39;;;;;;;;;;;;;;;4.39;100.00;99948.97;5132188;27;1173;-68
2023/03/03 05:10:07;;;;;;;;;;;;;;;4.37;100.00;99951.25;5133339;27;1969;-67
2023/03/03 05:12:33;;;;;;;;;;;;;;;4.35;100.00;99948.88;5133368;27;1102;-68
2023/03/03 05:15:00;;;;;;;;;;;;;;;4.36;100.00;99952.44;5131307;27;1444;-68
2023/03/03 05:17:26;;;;;;;;;;;;;;;4.39;100.00;99957.16;5133367;27;870;-68
2023/03/03 05:19:56;;;;;;;;;;;;;;;4.45;100.00;99955.75;5132999;27;1223;-68
2023/03/03 05:22:22;;;;;;;;;;;;;;;4.52;100.00;99955.91;5131917;27;1394;-68
2023/03/03 05:24:49;;;;;;;;;;;;;;;4.58;100.00;99951.72;5133342;27;795;-67
2023/03/03 05:27:16;;;;;;;;;;;;;;;4.65;100.00;99956.56;5133093;27;878;-67
2023/03/03 05:29:42;;;;;;;;;;;;;;;4.70;100.00;99953.56;5133293;27;1918;-68
2023/03/03 05:32:09;;;;;;;;;;;;;;;4.77;100.00;99958.38;5133121;27;889;-67
2023/03/03 05:34:35;;;;;;;;;;;;;;;4.82;100.00;99956.16;5132925;27;869;-66
2023/03/03 05:37:02;;;;;;;;;;;;;;;4.89;100.00;99961.00;5131803;27;859;-68
2023/03/03 05:39:35;;;;;;;;;;;;;;;4.98;100.00;99966.25;5132935;27;870;-68
2023/03/03 05:42:02;;;;;;;;;;;;;;;5.08;100.00;99961.00;5133160;27;878;-67
2023/03/03 05:44:29;;;;;;;;;;;;;;;5.18;100.00;99961.56;5133177;27;963;-67
2023/03/03 05:46:56;;;;;;;;;;;;;;;5.24;100.00;99968.31;5133590;27;771;-67
2023/03/03 05:49:23;;;;;;;;;;;;;;;5.31;100.00;99966.53;5132932;27;1897;-67
2023/03/03 05:51:49;;;;;;;;;;;;;;;5.37;100.00;99966.22;5133581;27;767;-68
2023/03/03 05:54:15;;;;;;;;;;;;;;;5.37;100.00;99960.72;5133348;27;823;-68
2023/03/03 05:56:42;;;;;;;;;;;;;;;5.38;100.00;99960.38;5132655;27;874;-69
2023/03/03 05:59:09;;;;;;;;;;;;;;;5.33;100.00;99957.91;5131427;27;1317;-67
2023/03/03 06:01:35;;;;;;;;;;;;;;;5.37;100.00;99953.28;5132617;27;823;-68
2023/03/03 06:04:01;;;;;;;;;;;;;;;5.44;100.00;99961.66;5132776;27;842;-68
2023/03/03 06:06:28;;;;;;;;;;;;;;;5.51;100.00;99959.06;5132559;27;830;-68
2023/03/03 06:08:54;;;;;;;;;;;;;;;5.60;100.00;99960.75;5132499;27;1946;-68
2023/03/03 06:11:20;;;;;;;;;;;;;;;5.64;100.00;99956.13;5132456;27;883;-68
2023/03/03 06:13:47;;;;;;;;;;;;;;;5.69;100.00;99955.81;5132487;27;803;-68
2023/03/03 06:16:13;;;;;;;;;;;;;;;5.76;100.00;99947.72;5132411;27;823;-69
2023/03/03 06:18:40;;;;;;;;;;;;;;;5.88;100.00;99952.22;5132157;27;1244;-69
2023/03/03 06:21:08;;;;;;;;;;;;;;;6.04;100.00;99954.84;5132380;27;870;-69
2023/03/03 06:23:34;;;;;;;;;;;;;;;6.21;100.00;99959.84;5131056;28;1402;-68
2023/03/03 06:26:01;;;;;;;;;;;;;;;6.43;100.00;99957.41;5134900;27;819;-68
2023/03/03 06:28:28;;;;;;;;;;;;;;;6.64;100.00;99962.41;5136550;27;1914;-67
2023/03/03 06:30:55;;;;;;;;;;;;;;;6.79;100.00;99969.69;5135263;27;1190;-67
2023/03/03 06:33:22;;;;;;;;;;;;;;;6.92;100.00;99967.47;5136483;27;870;-68
2023/03/03 06:35:52;;;;;;;;;;;;;;;7.01;100.00;99964.44;5136498;27;925;-68
2023/03/03 06:38:19;;;;;;;;;;;;;;;7.19;100.00;99972.88;5136379;27;850;-68
2023/03/03 06:40:47;;;;;;;;;;;;;;;7.33;100.00;99970.31;5136464;27;795;-67
2023/03/03 06:43:23;;;;;;;;;;;;;;;7.61;100.00;99966.28;5136325;27;795;-68
2023/03/03 06:45:49;;;;;;;;;;;;;;;7.91;100.00;99972.44;5136312;27;822;-68
2023/03/03 06:48:16;;;;;;;;;;;;;;;8.07;100.00;99972.19;5136212;27;799;-68
2023/03/03 06:50:43;;;;;;;;;;;;;;;8.51;100.00;99967.78;5136227;27;1944;-67
2023/03/03 06:53:23;;;;;;;;;;;;;;;8.89;100.00;99965.63;5136189;27;810;-67
2023/03/03 06:55:50;;;;;;;;;;;;;;;8.85;100.00;99962.84;5134757;27;1289;-68
2023/03/03 06:58:19;;;;;;;;;;;;;;;8.86;100.00;99958.94;5136085;27;865;-67
2023/03/03 07:00:48;;;;;;;;;;;;;;;8.99;100.00;99953.88;5135972;27;874;-68
2023/03/03 07:03:17;;;;;;;;;;;;;;;9.28;100.00;99954.75;5136168;27;807;-68
2023/03/03 07:05:45;;;;;;;;;;;;;;;9.23;100.00;99959.84;5135898;27;866;-67
2023/03/03 07:08:15;;;;;;;;;;;;;;;9.18;100.00;99961.81;5135958;27;815;-66
2023/03/03 07:10:43;;;;;;;;;;;;;;;9.42;100.00;99955.97;5135746;27;1939;-67
2023/03/03 07:13:23;;;;;;;;;;;;;;;9.56;100.00;99962.31;5135815;27;819;-67
2023/03/03 07:15:51;;;;;;;;;;;;;;;9.78;100.00;99954.81;5134697;27;1433;-65
2023/03/03 07:18:24;;;;;;;;;;;;;;;10.06;100.00;99955.22;5135689;27;1160;-68
2023/03/03 07:20:51;;;;;;;;;;;;;;;9.84;100.00;99955.25;5135692;27;865;-68
2023/03/03 07:23:23;;;;;;;;;;;;;;;9.54;100.00;99942.59;5135564;27;902;-68
2023/03/03 07:25:50;;;;;;;;;;;;;;;9.57;100.00;99949.28;5134137;27;1379;-69
2023/03/03 07:28:26;;;;;;;;;;;;;;;9.92;100.00;99950.50;5135509;27;870;-67
2023/03/03 07:30:54;;;;;;;;;;;;;;;10.48;100.00;99945.34;5135668;27;881;-68
2023/03/03 07:33:25;;;;;;;;;;;;;;;10.56;100.00;99941.34;5135715;27;870;-67
2023/03/03 07:35:53;;;;;;;;;;;;;;;10.41;100.00;99946.94;5135289;27;858;-69
2023/03/03 07:38:32;;;;;;;;;;;;;;;10.36;100.00;99950.09;5134591;27;823;-68
2023/03/03 07:41:00;;;;;;;;;;;;;;;10.76;100.00;99950.78;5135286;27;854;-68
2023/03/03 07:43:30;;;;;;;;;;;;;;;10.80;100.00;99945.25;5135201;27;858;-67
2023/03/03 07:46:15;;;;;;;;;;;;;;;10.26;100.00;99947.31;5135251;27;816;-68
2023/03/03 07:48:43;;;;;;;;;;;;;;;9.79;100.00;99944.56;5135293;27;797;-68
2023/03/03 07:51:18;;;;;;;;;;;;;;;9.38;100.00;99947.66;5134206;27;1063;-68
2023/03/03 07:53:46;;;;;;;;;;;;;;;9.20;100.00;99953.16;5135293;27;886;-69
2023/03/03 07:59:21;;;;;;;;;;;;;;;9.08;100.00;99940.50;5134718;27;1935;-68
2023/03/03 08:02:12;;;;;;;;;;;;;;;9.17;100.00;99949.22;5134792;27;837;-66
2023/03/03 08:04:43;;;;;;;;;;;;;;;9.31;100.00;99950.41;5134905;27;815;-67
2023/03/03 08:07:20;;;;;;;;;;;;;;;9.01;100.00;99954.25;5134746;27;834;-68
2023/03/03 08:10:09;;;;;;;;;;;;;;;8.91;100.00;99958.53;5134616;27;878;-68
2023/03/03 08:12:37;;;;;;;;;;;;;;;8.87;100.00;99963.25;5134314;27;1194;-67
2023/03/03 08:15:16;;;;;;;;;;;;;;;8.75;100.00;99961.63;5134662;27;878;-68
2023/03/03 08:17:44;;;;;;;;;;;;;;;8.71;100.00;99962.81;5134325;27;996;-68
2023/03/03 08:20:29;;;;;;;;;;;;;;;8.76;100.00;99957.69;5134169;27;1974;-67
2023/03/03 08:22:56;;;;;;;;;;;;;;;8.86;100.00;99953.41;5134442;27;843;-69
2023/03/03 08:25:22;;;;;;;;;;;;;;;9.17;100.00;99942.88;5134318;27;866;-68
2023/03/03 08:27:48;;;;;;;;;;;;;;;9.59;100.00;99944.16;5134383;27;886;-67
2023/03/03 08:30:16;;;;;;;;;;;;;;;9.90;100.00;99939.84;5133076;27;1291;-68
2023/03/03 08:32:43;;;;;;;;;;;;;;;10.09;100.00;99943.38;5134259;27;894;-67
2023/03/03 08:35:10;;;;;;;;;;;;;;;10.46;100.00;99933.91;5134167;27;827;-67
2023/03/03 08:37:36;;;;;;;;;;;;;;;10.51;100.00;99936.25;5134200;27;889;-67
2023/03/03 08:40:03;;;;;;;;;;;;;;;10.38;100.00;99933.91;5132646;27;1921;-68
2023/03/03 08:42:30;;;;;;;;;;;;;;;10.83;100.00;99934.16;5134110;27;834;-68
2023/03/03 08:44:56;;;;;;;;;;;;;;;11.42;100.00;99925.19;5134052;27;886;-68
2023/03/03 08:47:23;;;;;;;;;;;;;;;11.68;100.00;99927.78;5133864;27;882;-68
2023/03/03 08:49:50;;;;;;;;;;;;;;;11.79;100.00;99922.94;5132830;27;874;-67
2023/03/03 08:52:16;;;;;;;;;;;;;;;11.89;100.00;99921.31;5132661;27;1306;-68
2023/03/03 08:54:43;;;;;;;;;;;;;;;12.18;100.00;99913.53;5133791;27;819;-68
2023/03/03 08:57:09;;;;;;;;;;;;;;;12.53;100.00;99906.84;5132476;27;1205;-67
2023/03/03 08:59:37;;;;;;;;;;;;;;;13.01;100.00;99913.38;5133630;27;1889;-67
2023/03/03 09:02:05;;;;;;;;;;;;;;;13.30;100.00;99911.03;5133606;27;872;-66
2023/03/03 09:04:30;;;;;;;;;;;;;;;13.25;100.00;99903.16;5133831;27;834;-66
2023/03/03 09:06:57;;;;;;;;;;;;;;;13.59;100.00;99896.72;5133517;27;885;-64
2023/03/03 09:09:23;;;;;;;;;;;;;;;13.84;100.00;99897.09;5133587;27;815;-64
2023/03/03 09:11:52;;;;;;;;;;;;;;;13.85;100.00;99901.47;5133590;27;870;-63
2023/03/03 09:14:19;;;;;;;;;;;;;;;12.96;100.00;99891.66;5133389;27;886;-63
2023/03/03 09:16:52;;;;;;;;;;;;;;;12.98;100.00;99880.94;5133319;27;866;-64
2023/03/03 09:19:19;;;;;;;;;;;;;;;13.46;98.56;99883.44;5132997;27;1906;-63
2023/03/03 09:21:46;;;;;;;;;;;;;;;12.88;97.07;99891.72;5133273;27;902;-68
2023/03/03 09:24:24;;;;;;;;;;;;;;;12.54;99.69;99883.44;5133262;27;811;-69
2023/03/03 09:26:54;;;;;;;;;;;;;;;12.20;98.78;99892.50;5133157;27;858;-68
2023/03/03 09:29:28;;;;;;;;;;;;;;;11.83;98.89;99894.03;5133105;27;855;-68
2023/03/03 09:31:59;;;;;;;;;;;;;;;11.40;100.00;99904.63;5131774;27;1201;-68
2023/03/03 09:37:39;;;;;;;;;;;;;;;12.93;100.00;99890.50;5132888;27;1257;-65
2023/03/03 10:09:07;;;;;;;;;;;;;;;12.17;82.82;99856.53;6233172;22;1692;-57
2023/03/03 10:11:56;;;;;;;;;;;;;;;12.30;81.08;99859.56;5030149;28;1692;-58
2023/03/03 10:14:23;;;;;;;;;;;;;;;11.76;80.59;99863.63;5032006;28;815;-58
2023/03/03 10:16:57;;;;;;;;;;;;;;;11.72;82.64;99856.56;5032241;28;835;-58
2023/03/03 10:19:33;;;;;;;;;;;;;;;11.97;83.08;99839.72;5031341;28;1979;-58
2023/03/03 10:22:37;;;;;;;;;;;;;;;12.44;83.50;99828.94;5031310;28;1157;-58
2023/03/03 10:25:04;;;;;;;;;;;;;;;12.98;82.44;99823.44;4989983;28;1390;-58
2023/03/03 10:27:41;;;;;;;;;;;;;;;12.88;78.62;99825.16;4989934;28;934;-58
2023/03/03 10:30:12;;;;;;;;;;;;;;;12.58;79.41;99825.19;4990457;28;899;-58
2023/03/03 10:33:00;;;;;;;;;;;;;;;12.40;76.47;99817.09;4989928;28;1059;-58
2023/03/03 10:35:35;;;;;;;;;;;;;;;12.69;79.53;99806.41;4989888;28;890;-58
2023/03/03 10:38:13;;;;;;;;;;;;;;;12.77;79.53;99802.34;4989836;28;836;-58
2023/03/03 10:40:47;;;;;;;;;;;;;;;13.22;80.17;99801.28;4989757;28;1989;-58
2023/03/03 10:43:32;;;;;;;;;;;;;;;13.43;78.37;99794.66;4989865;28;835;-58
2023/03/03 10:46:06;;;;;;;;;;;;;;;13.13;76.71;99799.06;4989546;28;1587;-58
2023/03/03 10:48:38;;;;;;;;;;;;;;;12.79;75.91;99797.16;4989803;28;888;-58
2023/03/03 10:51:05;;;;;;;;;;;;;;;12.56;75.63;99789.53;4973318;28;1640;-58
2023/03/03 10:53:47;;;;;;;;;;;;;;;12.37;75.93;99793.75;4989781;28;906;-58
2023/03/03 10:56:14;;;;;;;;;;;;;;;12.28;76.49;99787.16;4990026;28;832;-58
2023/03/03 10:59:01;;;;;;;;;;;;;;;12.01;74.55;99785.88;5004922;28;1878;-58
2023/03/03 11:01:45;;;;;;;;;;;;;;;12.00;73.25;99777.97;5031098;28;819;-58
2023/03/03 11:04:15;;;;;;;;;;;;;;;12.11;74.29;99783.38;5031046;28;828;-58
2023/03/03 11:06:53;;;;;;;;;;;;;;;12.46;73.87;99774.63;5031002;28;850;-58
2023/03/03 11:09:27;;;;;;;;;;;;;;;12.37;73.35;99768.78;5033735;28;1325;-58
2023/03/03 11:12:02;;;;;;;;;;;;;;;12.19;74.58;99765.47;5071333;28;823;-58
2023/03/03 11:14:51;;;;;;;;;;;;;;;12.24;76.36;99771.34;5074595;28;811;-58
2023/03/03 11:17:26;;;;;;;;;;;;;;;12.58;76.16;99764.97;5068663;28;1235;-58
2023/03/03 11:20:12;;;;;;;;;;;;;;;12.56;75.43;99759.06;5074383;28;1969;-58
2023/03/03 11:22:55;;;;;;;;;;;;;;;12.40;75.41;99754.13;5074588;28;874;-58
2023/03/03 11:25:44;;;;;;;;;;;;;;;11.70;77.37;99748.19;5074412;28;870;-58
2023/03/03 11:28:18;;;;;;;;;;;;;;;11.34;80.33;99745.78;5068701;28;1123;-58
2023/03/03 11:31:03;;;;;;;;;;;;;;;11.07;81.19;99748.34;5074348;28;967;-58
2023/03/03 11:33:36;;;;;;;;;;;;;;;10.90;82.27;99747.28;5074363;28;811;-58
2023/03/03 11:36:14;;;;;;;;;;;;;;;10.70;82.54;99744.28;5074094;28;1129;-58
2023/03/03 11:38:47;;;;;;;;;;;;;;;10.98;81.91;99735.78;5073946;28;1947;-58
2023/03/03 11:41:22;;;;;;;;;;;;;;;11.54;80.45;99729.34;5074077;28;875;-58
2023/03/03 11:43:58;;;;;;;;;;;;;;;12.65;79.21;99734.38;5074022;28;859;-58
2023/03/03 11:46:29;;;;;;;;;;;;;;;13.73;74.52;99734.63;5073959;28;1260;-58
2023/03/03 11:48:58;;;;;;;;;;;;;;;14.70;71.55;99733.41;5073980;28;914;-57
2023/03/03 11:51:28;;;;;;;;;;;;;;;14.87;68.04;99737.78;5073926;28;854;-57
2023/03/03 11:53:58;;;;;;;;;;;;;;;15.01;66.23;99733.88;5073813;28;890;-57
2023/03/03 11:56:24;;;;;;;;;;;;;;;14.17;64.07;99740.91;5073809;28;878;-57
2023/03/03 11:59:05;;;;;;;;;;;;;;;13.57;67.03;99732.50;5073662;28;1890;-57
2023/03/03 12:01:45;;;;;;;;;;;;;;;12.72;70.04;99732.72;5073773;28;870;-57
2023/03/03 12:04:18;;;;;;;;;;;;;;;12.51;71.43;99733.81;5073786;28;823;-57
2023/03/03 12:07:02;;;;;;;;;;;;;;;12.54;71.77;99730.19;5073803;28;827;-58
2023/03/03 12:09:49;;;;;;;;;;;;;;;12.37;71.66;99734.75;5073442;28;1182;-58
2023/03/03 12:12:25;;;;;;;;;;;;;;;12.26;73.33;99732.13;5073512;28;882;-58
2023/03/03 12:15:10;;;;;;;;;;;;;;;11.87;74.86;99738.13;5055469;28;1394;-58
2023/03/03 12:17:55;;;;;;;;;;;;;;;11.63;76.38;99724.94;5055494;28;1262;-58
2023/03/03 12:20:21;;;;;;;;;;;;;;;11.44;77.53;99728.28;5073294;28;1902;-58
2023/03/03 12:23:06;;;;;;;;;;;;;;;11.14;77.00;99729.72;5073155;28;891;-58
2023/03/03 12:25:37;;;;;;;;;;;;;;;11.01;78.81;99726.69;5073318;28;862;-58
2023/03/03 12:28:24;;;;;;;;;;;;;;;11.06;78.17;99730.19;5073870;28;831;-58
2023/03/03 12:31:08;;;;;;;;;;;;;;;11.08;78.54;99725.84;5073145;28;863;-58
2023/03/03 12:33:37;;;;;;;;;;;;;;;11.10;78.86;99725.44;5073045;28;928;-58
2023/03/03 12:36:03;;;;;;;;;;;;;;;11.07;78.44;99724.25;5073289;28;858;-58
2023/03/03 12:38:32;;;;;;;;;;;;;;;10.91;79.91;99729.53;5072813;28;903;-58
2023/03/03 12:41:11;;;;;;;;;;;;;;;10.77;80.51;99733.94;5072834;28;1885;-58
2023/03/03 12:43:47;;;;;;;;;;;;;;;10.54;80.79;99733.69;5072887;28;811;-58
2023/03/03 12:46:36;;;;;;;;;;;;;;;10.40;81.73;99740.88;5054974;28;1386;-58
2023/03/03 12:49:03;;;;;;;;;;;;;;;10.33;82.52;99742.91;5072762;28;1167;-58
2023/03/03 12:51:39;;;;;;;;;;;;;;;10.20;84.17;99742.56;5054724;28;863;-58
2023/03/03 12:54:21;;;;;;;;;;;;;;;10.25;85.88;99736.59;5072915;28;871;-58
2023/03/03 12:57:08;;;;;;;;;;;;;;;10.04;87.11;99729.19;5072846;28;891;-58
2023/03/03 12:59:37;;;;;;;;;;;;;;;9.78;90.15;99734.00;5065248;28;1939;-58
2023/03/03 13:02:03;;;;;;;;;;;;;;;9.65;92.50;99732.88;5054546;28;910;-58
2023/03/03 13:04:35;;;;;;;;;;;;;;;9.44;94.21;99735.66;5072471;28;859;-58
2023/03/03 13:07:10;;;;;;;;;;;;;;;9.28;95.28;99733.31;5072330;28;828;-58
2023/03/03 13:10:09;;;;;;;;;;;;;;;9.13;96.14;99732.53;5072396;28;1366;-58
2023/03/03 13:12:35;;;;;;;;;;;;;;;9.00;99.24;99734.88;5021721;28;1297;-58
2023/03/03 13:15:02;;;;;;;;;;;;;;;8.89;100.00;99729.34;5072222;28;876;-58
2023/03/03 13:17:41;;;;;;;;;;;;;;;8.84;100.00;99734.50;5072247;28;890;-58
2023/03/03 13:20:40;;;;;;;;;;;;;;;8.78;100.00;99728.56;5072053;28;1910;-58
2023/03/03 13:23:25;;;;;;;;;;;;;;;8.60;100.00;99723.03;5032117;28;1219;-59
2023/03/03 13:25:58;;;;;;;;;;;;;;;8.47;100.00;99730.91;5072052;28;886;-58
2023/03/03 13:28:31;;;;;;;;;;;;;;;8.64;100.00;99734.06;5071988;28;887;-58
2023/03/03 13:31:02;;;;;;;;;;;;;;;8.80;100.00;99731.72;5071925;28;907;-58
2023/03/03 13:33:29;;;;;;;;;;;;;;;9.29;100.00;99735.66;5071885;28;839;-58
2023/03/03 13:36:08;;;;;;;;;;;;;;;9.63;100.00;99737.22;5071543;28;823;-58
2023/03/03 13:38:42;;;;;;;;;;;;;;;9.94;100.00;99733.56;5053833;28;1212;-58
2023/03/03 13:41:27;;;;;;;;;;;;;;;10.33;100.00;99732.66;5071840;28;835;-58
2023/03/03 13:44:03;;;;;;;;;;;;;;;10.86;100.00;99732.72;5071747;28;890;-58
2023/03/03 13:46:35;;;;;;;;;;;;;;;10.63;100.00;99736.81;5072015;28;824;-57
2023/03/03 13:49:20;;;;;;;;;;;;;;;10.19;100.00;99724.38;5071696;28;819;-58
2023/03/03 13:51:50;;;;;;;;;;;;;;;10.20;100.00;99728.75;5071703;28;859;-58
2023/03/03 13:54:35;;;;;;;;;;;;;;;9.78;100.00;99728.47;5071736;28;835;-58
2023/03/03 13:57:02;;;;;;;;;;;;;;;9.85;100.00;99732.41;5071658;28;910;-58